Accueil
METAR-TAF:

METAR-TAF

Aéroports :

Londres, Angleterre

Aéroport de Londres-City

latitude: 51-30N, longitude: 000-03E, altitude: 5 m

Observation

Le bulletin a été fait il y a 26 minutes, à 18:50 UTC
Vent 13 kt de sud-ouest, variant entre sud et ouest/sud-ouest
Température 14°C
Humidité 77%
Pression 1007 hPa
Visibilité 10 km ou plus
Nuages fragmentés à une hauteur de 4400 ft

METAR: EGLC 211850Z AUTO 23013KT 180V240 9999 BKN044 14/10 Q1007

Heure: 19:16 (19:16 UTC)

Prévision

Le bulletin a été fait il y a 2 heures et 17 minutes, à 16:59 UTC
Prévision valable du 21 à 18 UTC au 21 à 22 UTC
Vent 14 kt de ouest/sud-ouest
Visibilité 10 km ou plus
Quelques nuages à une hauteur de 1500 ft
Nuages épars à une hauteur de 3000 ft
Temporairement
du 21 à 18 UTC au 21 à 22 UTC
Vent 16 kt de ouest/sud-ouest avec des rafales jusqu'à 26 kt

TAF: EGLC 211659Z 2118/2122 24014KT 9999 FEW015 SCT030 TEMPO 2118/2122 24016G26KT

Observations et prévisions météorologiques de plus de 4000 aéroports (messages METAR et TAF).

Les stations disponibles sont représentées par des disques jaunes et rouges sur la carte.

Passer la souris dessus pour voir le nom de la station.

Cliquer dessus pour voir les observations et prévisions météorologiques.

Pour changer de carte: cliquez sur les boutons verts avec une croix noire pour zoomer, sur le bouton vert avec un tiret pour effectuer un zoom arrière, ou sur les flèches vertes pour les cartes adjacentes.


METAR-TAF: